Time;durP1;ratioP1;P1;durP2;ratioP2;P2;SDS_P1;SDS_P2;PMS_P1;PMS_P2;Temp;Humidity;BMP_temperature;BMP_pressure;BME280_temperature;BME280_humidity;BME280_pressure;Samples;Min_cycle;Max_cycle;Signal;HPM_P1;HPM_P2
2021/08/01 00:00:35;;;;;;;14.17;8.70;;;;;;;15.99;100.00;100397.56;3562064;40;20541;-49
2021/08/01 00:03:02;;;;;;;18.87;10.40;;;;;;;15.93;100.00;100401.84;3580663;40;20841;-45
2021/08/01 00:05:32;;;;;;;19.77;9.10;;;;;;;15.94;100.00;100389.69;3574173;40;20642;-45
2021/08/01 00:08:00;;;;;;;14.30;8.40;;;;;;;15.91;100.00;100393.09;3595620;39;20506;-47
2021/08/01 00:10:33;;;;;;;15.80;8.00;;;;;;;15.86;100.00;100386.09;3581162;40;20511;-45
2021/08/01 00:13:02;;;;;;;21.83;11.60;;;;;;;15.91;100.00;100387.03;3590447;40;20469;-45
2021/08/01 00:15:33;;;;;;;17.00;8.97;;;;;;;16.08;100.00;100374.28;3591268;39;20499;-48
2021/08/01 00:18:02;;;;;;;21.43;10.30;;;;;;;16.05;100.00;100382.06;3590294;40;20456;-48
2021/08/01 00:20:30;;;;;;;15.00;9.43;;;;;;;16.00;100.00;100374.16;3582579;39;20557;-49
2021/08/01 00:22:58;;;;;;;20.77;10.13;;;;;;;16.05;100.00;100369.91;3589299;40;20498;-47
2021/08/01 00:25:32;;;;;;;14.30;8.30;;;;;;;15.94;100.00;100371.47;3580904;39;20507;-45
2021/08/01 00:28:01;;;;;;;11.63;7.10;;;;;;;15.97;100.00;100361.13;3589500;40;20458;-46
2021/08/01 00:30:30;;;;;;;14.90;8.67;;;;;;;16.20;100.00;100360.53;3590081;39;20560;-46
2021/08/01 00:32:57;;;;;;;14.40;8.37;;;;;;;16.05;100.00;100359.50;3588871;40;20792;-47
2021/08/01 00:35:30;;;;;;;18.73;8.20;;;;;;;16.09;100.00;100356.94;3589517;40;20805;-47
2021/08/01 00:37:59;;;;;;;14.43;8.67;;;;;;;16.15;100.00;100363.09;3589015;40;20458;-46
2021/08/01 00:40:26;;;;;;;17.13;8.53;;;;;;;16.10;100.00;100364.75;3589682;40;20571;-46
2021/08/01 00:42:54;;;;;;;20.90;9.40;;;;;;;16.19;100.00;100353.56;3589640;40;20462;-48
2021/08/01 00:45:23;;;;;;;24.90;8.90;;;;;;;16.06;100.00;100355.16;3590009;40;20594;-46
2021/08/01 00:47:52;;;;;;;15.03;8.80;;;;;;;16.15;100.00;100354.41;3589052;40;20439;-46
2021/08/01 00:50:20;;;;;;;14.47;8.53;;;;;;;16.03;100.00;100357.72;3570944;40;20532;-45
2021/08/01 00:52:50;;;;;;;15.23;7.53;;;;;;;16.02;100.00;100359.47;3589644;39;20471;-45
2021/08/01 00:55:18;;;;;;;14.00;8.90;;;;;;;16.16;100.00;100364.81;3589649;40;20494;-49
2021/08/01 00:57:45;;;;;;;19.03;9.07;;;;;;;16.23;100.00;100364.91;3588819;39;20489;-47
2021/08/01 01:00:21;;;;;;;14.47;8.77;;;;;;;16.06;100.00;100369.03;3589904;40;20508;-49
2021/08/01 01:02:50;;;;;;;17.43;7.70;;;;;;;16.00;100.00;100361.16;3588807;40;20468;-46
2021/08/01 01:05:24;;;;;;;15.37;7.97;;;;;;;16.07;100.00;100359.50;3590036;40;20517;-45
2021/08/01 01:07:59;;;;;;;16.73;8.60;;;;;;;16.22;100.00;100358.84;3581818;40;20531;-45
2021/08/01 01:10:31;;;;;;;16.90;8.57;;;;;;;16.23;100.00;100350.16;3584345;39;20511;-46
2021/08/01 01:13:04;;;;;;;15.93;8.73;;;;;;;16.16;100.00;100344.00;3571092;40;21352;-45
2021/08/01 01:15:35;;;;;;;14.07;7.30;;;;;;;16.02;100.00;100343.84;3590017;39;20491;-46
2021/08/01 01:18:04;;;;;;;16.87;8.33;;;;;;;16.14;100.00;100342.22;3589263;40;20481;-47
2021/08/01 01:20:48;;;;;;;12.90;6.87;;;;;;;15.98;100.00;100330.75;3583453;40;20514;-46
2021/08/01 01:23:30;;;;;;;19.17;8.53;;;;;;;16.14;100.00;100335.31;3582592;40;20529;-46
2021/08/01 01:26:01;;;;;;;14.03;8.63;;;;;;;16.12;100.00;100333.53;3571580;39;20501;-46
2021/08/01 01:28:34;;;;;;;14.63;8.80;;;;;;;16.08;100.00;100331.75;3590597;40;20492;-45
2021/08/01 01:31:09;;;;;;;15.87;9.27;;;;;;;16.06;100.00;100321.34;3594440;39;20510;-48
2021/08/01 01:33:38;;;;;;;17.47;8.83;;;;;;;16.08;100.00;100324.81;3591114;39;20828;-46
2021/08/01 01:36:07;;;;;;;15.67;9.33;;;;;;;16.21;100.00;100315.47;3587994;39;20466;-45
2021/08/01 01:38:37;;;;;;;18.20;9.10;;;;;;;16.15;100.00;100324.03;3572108;40;20503;-48
2021/08/01 01:41:05;;;;;;;19.43;8.30;;;;;;;16.06;100.00;100317.00;3592731;39;20518;-47
2021/08/01 01:43:33;;;;;;;19.60;9.77;;;;;;;15.99;100.00;100319.53;3588580;40;20719;-47
2021/08/01 01:46:02;;;;;;;26.80;14.90;;;;;;;16.06;100.00;100319.59;3585148;40;20489;-45
2021/08/01 01:48:29;;;;;;;14.00;8.87;;;;;;;15.97;100.00;100322.09;3588852;40;20492;-45
2021/08/01 01:50:58;;;;;;;13.43;7.83;;;;;;;15.98;100.00;100323.84;3589710;39;20509;-45
2021/08/01 01:53:25;;;;;;;16.60;8.47;;;;;;;15.91;100.00;100329.78;3590269;40;20507;-45
2021/08/01 01:55:54;;;;;;;14.70;8.77;;;;;;;16.11;100.00;100321.41;3588403;39;20481;-45
2021/08/01 01:58:22;;;;;;;13.10;8.70;;;;;;;16.09;100.00;100326.56;3590001;40;20844;-46
2021/08/01 02:00:50;;;;;;;18.53;9.87;;;;;;;16.20;100.00;100329.28;3591184;39;20544;-47
2021/08/01 02:03:17;;;;;;;14.00;7.80;;;;;;;16.00;100.00;100326.47;3586025;40;20498;-46
2021/08/01 02:05:46;;;;;;;14.77;8.17;;;;;;;16.05;100.00;100328.25;3589738;39;20512;-47
2021/08/01 02:08:13;;;;;;;14.33;8.70;;;;;;;16.18;100.00;100326.69;3591856;40;20504;-45
2021/08/01 02:10:46;;;;;;;18.27;8.70;;;;;;;16.01;100.00;100329.06;3590451;39;20521;-47
2021/08/01 02:13:18;;;;;;;15.80;7.10;;;;;;;15.86;100.00;100323.66;3591903;40;20532;-48
2021/08/01 02:15:50;;;;;;;11.70;7.20;;;;;;;16.03;100.00;100323.91;3589724;39;20838;-47
2021/08/01 02:18:21;;;;;;;15.90;7.57;;;;;;;16.01;100.00;100310.84;3573267;40;20943;-46
2021/08/01 02:20:50;;;;;;;17.77;7.33;;;;;;;15.98;100.00;100313.44;3592658;40;20556;-44
2021/08/01 02:23:21;;;;;;;12.20;6.77;;;;;;;15.95;100.00;100310.81;3593022;40;20509;-46
2021/08/01 02:25:49;;;;;;;12.53;6.33;;;;;;;15.97;100.00;100311.69;3590045;39;20784;-47
2021/08/01 02:28:19;;;;;;;10.10;6.87;;;;;;;16.00;100.00;100313.47;3591710;40;20506;-48
2021/08/01 02:30:47;;;;;;;13.20;6.57;;;;;;;16.02;100.00;100311.75;3590950;39;20497;-44
2021/08/01 02:33:16;;;;;;;12.30;6.50;;;;;;;16.09;100.00;100310.09;3591411;40;20514;-47
2021/08/01 02:35:44;;;;;;;15.97;8.20;;;;;;;16.10;100.00;100311.84;3588632;39;20501;-45
2021/08/01 02:38:14;;;;;;;12.10;6.83;;;;;;;16.05;100.00;100314.41;3591679;40;20505;-45
2021/08/01 02:40:43;;;;;;;15.13;7.87;;;;;;;16.12;100.00;100310.13;3572174;39;20513;-45
2021/08/01 02:43:12;;;;;;;22.63;7.80;;;;;;;16.07;100.00;100304.88;3591762;40;20508;-45
2021/08/01 02:45:42;;;;;;;15.10;8.33;;;;;;;16.02;100.00;100310.03;3592719;39;20515;-44
2021/08/01 02:48:11;;;;;;;18.80;9.33;;;;;;;15.93;100.00;100310.78;3591156;40;20530;-46
2021/08/01 02:50:39;;;;;;;16.83;9.27;;;;;;;16.09;100.00;100315.31;3591051;39;20509;-46
2021/08/01 02:53:09;;;;;;;20.90;9.90;;;;;;;16.10;100.00;100311.84;3591369;40;20520;-46
2021/08/01 02:55:38;;;;;;;16.87;10.00;;;;;;;16.20;100.00;100309.38;3587694;39;20501;-47
2021/08/01 02:58:07;;;;;;;28.67;9.70;;;;;;;16.19;100.00;100309.34;3590995;40;20512;-47
2021/08/01 03:00:35;;;;;;;14.80;10.13;;;;;;;16.18;100.00;100311.09;3592182;39;20514;-46
2021/08/01 03:03:06;;;;;;;18.53;9.70;;;;;;;16.28;100.00;100318.97;3591148;39;20541;-47
2021/08/01 03:05:35;;;;;;;19.83;11.20;;;;;;;16.37;100.00;100326.03;3590787;40;20502;-46
2021/08/01 03:08:02;;;;;;;14.80;9.57;;;;;;;16.37;100.00;100328.63;3590274;40;20534;-45
2021/08/01 03:10:30;;;;;;;16.80;10.57;;;;;;;16.40;100.00;100328.69;3590802;39;20509;-45
2021/08/01 03:12:57;;;;;;;14.53;9.93;;;;;;;16.44;100.00;100325.22;3588682;40;20444;-47
2021/08/01 03:15:26;;;;;;;15.27;8.57;;;;;;;16.38;100.00;100327.75;3586053;39;20490;-47
2021/08/01 03:17:54;;;;;;;14.53;9.60;;;;;;;16.33;100.00;100325.13;3591162;40;20820;-45
2021/08/01 03:20:22;;;;;;;10.50;7.30;;;;;;;16.22;100.00;100326.72;3591145;40;20513;-48
2021/08/01 03:22:50;;;;;;;11.17;6.23;;;;;;;16.17;100.00;100326.66;3590552;40;20458;-48
2021/08/01 03:25:18;;;;;;;14.00;5.90;;;;;;;15.93;100.00;100323.78;3590986;40;20506;-46
2021/08/01 03:27:45;;;;;;;9.07;5.37;;;;;;;16.03;100.00;100316.97;3586916;40;20509;-48
2021/08/01 03:30:13;;;;;;;8.87;4.90;;;;;;;15.91;100.00;100314.19;3572605;40;20521;-47
2021/08/01 03:32:41;;;;;;;9.63;4.40;;;;;;;15.91;100.00;100314.19;3584492;40;20476;-44
2021/08/01 03:35:09;;;;;;;10.13;5.23;;;;;;;15.87;100.00;100309.78;3591184;40;20586;-45
2021/08/01 03:37:38;;;;;;;9.73;5.60;;;;;;;15.89;100.00;100319.38;3591678;39;20477;-46
2021/08/01 03:40:07;;;;;;;10.63;5.17;;;;;;;15.95;100.00;100316.03;3591168;40;20851;-47
2021/08/01 03:42:35;;;;;;;9.10;4.83;;;;;;;15.82;100.00;100327.94;3585812;39;20466;-50
2021/08/01 03:45:03;;;;;;;7.10;4.13;;;;;;;15.82;100.00;100334.84;3589362;40;20495;-44
2021/08/01 03:47:31;;;;;;;8.40;5.10;;;;;;;15.85;100.00;100327.13;3590424;39;20478;-47
2021/08/01 03:49:58;;;;;;;6.70;4.33;;;;;;;15.84;100.00;100335.78;3587431;40;20515;-46
2021/08/01 03:52:26;;;;;;;8.53;4.80;;;;;;;15.86;100.00;100347.06;3591530;39;20474;-48
2021/08/01 03:54:55;;;;;;;10.80;4.83;;;;;;;15.88;100.00;100343.63;3591084;40;20844;-47
2021/08/01 03:57:22;;;;;;;9.13;4.03;;;;;;;15.68;100.00;100348.56;3590200;39;20638;-44
2021/08/01 03:59:50;;;;;;;7.03;4.80;;;;;;;15.77;100.00;100361.69;3591146;40;20709;-46
2021/08/01 04:02:18;;;;;;;7.13;4.67;;;;;;;15.71;100.00;100366.81;3596801;39;20492;-44
2021/08/01 04:04:46;;;;;;;8.30;4.53;;;;;;;15.79;100.00;100375.59;3590832;40;20810;-48
2021/08/01 04:07:13;;;;;;;7.77;4.60;;;;;;;15.84;100.00;100383.44;3588728;39;20471;-45
2021/08/01 04:09:41;;;;;;;10.50;5.13;;;;;;;15.80;100.00;100390.34;3588176;40;20494;-44
2021/08/01 04:12:10;;;;;;;11.40;5.40;;;;;;;15.79;100.00;100380.78;3584049;39;20499;-46
2021/08/01 04:14:37;;;;;;;11.50;6.30;;;;;;;15.90;100.00;100377.47;3573678;40;20850;-45
2021/08/01 04:17:07;;;;;;;8.90;5.17;;;;;;;15.85;100.00;100367.00;3579738;40;20467;-47
2021/08/01 04:19:34;;;;;;;9.37;5.47;;;;;;;15.92;100.00;100365.38;3582062;40;20813;-45
2021/08/01 04:22:02;;;;;;;10.20;5.57;;;;;;;16.04;100.00;100349.06;3580323;40;20459;-46
2021/08/01 04:24:29;;;;;;;10.17;5.57;;;;;;;15.96;100.00;100346.38;3580193;40;20530;-47
2021/08/01 04:26:57;;;;;;;12.93;5.90;;;;;;;15.73;100.00;100349.50;3583111;40;20499;-45
2021/08/01 04:29:26;;;;;;;13.03;5.67;;;;;;;15.86;100.00;100350.56;3580840;40;20584;-45
2021/08/01 04:31:53;;;;;;;11.67;6.13;;;;;;;15.86;100.00;100350.56;3579104;40;20483;-46
2021/08/01 04:34:21;;;;;;;12.30;5.37;;;;;;;15.99;100.00;100349.00;3580903;40;20491;-45
2021/08/01 04:36:49;;;;;;;11.50;5.83;;;;;;;16.01;100.00;100349.03;3581554;40;20478;-46
2021/08/01 04:39:16;;;;;;;14.40;6.17;;;;;;;15.97;100.00;100352.44;3579484;40;20496;-46
2021/08/01 04:41:44;;;;;;;18.23;6.03;;;;;;;15.96;100.00;100354.19;3574786;40;20470;-46
2021/08/01 04:44:11;;;;;;;11.80;6.53;;;;;;;15.90;100.00;100357.53;3573552;40;20544;-45
2021/08/01 04:46:40;;;;;;;18.83;6.50;;;;;;;15.92;100.00;100370.59;3575307;40;20476;-47
2021/08/01 04:49:08;;;;;;;11.80;6.10;;;;;;;15.82;100.00;100379.06;3583498;40;20504;-45
2021/08/01 04:51:35;;;;;;;16.50;5.50;;;;;;;15.83;100.00;100381.72;3564033;40;20532;-46
2021/08/01 04:54:03;;;;;;;14.50;7.17;;;;;;;15.86;100.00;100392.16;3580712;40;20507;-47
2021/08/01 04:56:31;;;;;;;16.10;7.10;;;;;;;15.90;100.00;100382.69;3562175;40;20511;-46
2021/08/01 04:58:58;;;;;;;16.57;8.37;;;;;;;15.92;100.00;100376.69;3580896;40;20511;-46
2021/08/01 05:01:26;;;;;;;18.57;8.57;;;;;;;15.93;100.00;100378.44;3579712;40;20788;-47
2021/08/01 05:03:55;;;;;;;20.80;10.47;;;;;;;16.04;100.00;100375.06;3580258;40;20817;-47
2021/08/01 05:06:23;;;;;;;23.17;9.37;;;;;;;16.06;100.00;100366.44;3583478;40;20525;-45
2021/08/01 05:08:51;;;;;;;20.40;9.87;;;;;;;16.12;100.00;100372.56;3580207;40;20513;-48
2021/08/01 05:11:18;;;;;;;18.37;7.80;;;;;;;15.84;100.00;100387.78;3577551;40;20524;-43
2021/08/01 05:13:46;;;;;;;23.53;11.40;;;;;;;15.97;100.00;100383.66;3580546;40;20527;-47
2021/08/01 05:16:18;;;;;;;20.13;11.20;;;;;;;16.01;100.00;100398.47;3561928;40;20509;-44
2021/08/01 05:18:46;;;;;;;26.83;12.20;;;;;;;16.05;100.00;100395.91;3561753;40;20504;-44
2021/08/01 05:21:20;;;;;;;24.73;12.17;;;;;;;16.10;100.00;100397.72;3579448;40;20466;-44
2021/08/01 05:23:47;;;;;;;23.47;12.20;;;;;;;16.02;100.00;100392.41;3580694;40;20823;-45
2021/08/01 05:26:15;;;;;;;24.17;11.40;;;;;;;16.12;100.00;100399.50;3580452;40;20692;-44
2021/08/01 05:28:43;;;;;;;26.70;12.87;;;;;;;16.10;100.00;100397.72;3570508;40;20519;-47
2021/08/01 05:31:10;;;;;;;24.53;12.60;;;;;;;16.05;100.00;100393.31;3571740;40;20746;-47
2021/08/01 05:33:38;;;;;;;20.27;11.97;;;;;;;16.06;100.00;100402.00;3579984;40;20705;-48
2021/08/01 05:36:06;;;;;;;23.53;12.23;;;;;;;16.19;100.00;100396.09;3578180;39;20481;-44
2021/08/01 05:38:35;;;;;;;25.87;11.40;;;;;;;16.09;100.00;100382.97;3568936;40;20515;-44
2021/08/01 05:41:03;;;;;;;26.93;10.13;;;;;;;16.16;100.00;100384.78;3583871;40;20510;-45
2021/08/01 05:43:31;;;;;;;23.17;13.03;;;;;;;16.40;100.00;100385.94;3581611;40;20510;-43
2021/08/01 05:45:58;;;;;;;27.17;12.67;;;;;;;16.39;100.00;100382.47;3585196;40;20920;-46
2021/08/01 05:48:26;;;;;;;21.47;12.77;;;;;;;16.26;100.00;100381.44;3583450;40;20542;-44
2021/08/01 05:50:53;;;;;;;28.60;12.93;;;;;;;16.40;100.00;100380.75;3581860;40;20488;-44
2021/08/01 05:53:21;;;;;;;31.00;12.60;;;;;;;16.51;100.00;100381.72;3581769;40;20733;-46
2021/08/01 05:55:50;;;;;;;23.10;11.87;;;;;;;16.32;100.00;100381.50;3563494;40;20513;-44
2021/08/01 05:58:18;;;;;;;20.87;13.23;;;;;;;16.31;100.00;100374.56;3563282;40;20499;-44
2021/08/01 06:00:45;;;;;;;23.00;12.47;;;;;;;16.30;100.00;100383.22;3565579;40;20563;-43
2021/08/01 06:03:13;;;;;;;24.73;12.13;;;;;;;16.42;100.00;100379.88;3582434;40;20507;-46
2021/08/01 06:05:41;;;;;;;21.53;11.00;;;;;;;16.23;100.00;100375.31;3571317;40;20558;-45
2021/08/01 06:08:08;;;;;;;22.80;12.37;;;;;;;16.36;100.00;100381.56;3581680;40;20507;-45
2021/08/01 06:10:36;;;;;;;19.80;12.10;;;;;;;16.23;100.00;100381.41;3576926;40;20528;-45
2021/08/01 06:13:05;;;;;;;26.10;12.70;;;;;;;16.30;100.00;100383.22;3594951;39;20896;-44
2021/08/01 06:15:33;;;;;;;25.33;13.20;;;;;;;16.47;100.00;100390.38;3580439;40;20713;-44
2021/08/01 06:18:00;;;;;;;26.03;13.60;;;;;;;16.41;100.00;100380.75;3581557;40;20831;-45
2021/08/01 06:20:28;;;;;;;25.20;13.87;;;;;;;16.53;100.00;100380.03;3581128;40;20510;-45
2021/08/01 06:22:56;;;;;;;24.77;13.00;;;;;;;16.51;100.00;100365.25;3581267;40;20511;-47
2021/08/01 06:25:23;;;;;;;30.67;14.60;;;;;;;16.43;100.00;100378.16;3581384;40;20511;-48
2021/08/01 06:27:51;;;;;;;28.37;14.50;;;;;;;16.52;100.00;100367.88;3580765;40;20704;-44
2021/08/01 06:30:20;;;;;;;23.43;13.93;;;;;;;16.65;100.00;100363.66;3581444;40;20695;-46
2021/08/01 06:32:47;;;;;;;30.47;14.93;;;;;;;16.47;100.00;100372.16;3581237;40;20491;-44
2021/08/01 06:35:15;;;;;;;25.10;14.57;;;;;;;16.53;100.00;100369.59;3581333;40;20517;-43
2021/08/01 06:37:42;;;;;;;25.80;14.83;;;;;;;16.60;100.00;100368.81;3591117;39;20485;-44
2021/08/01 06:40:11;;;;;;;23.20;12.60;;;;;;;16.43;100.00;100373.84;3588404;39;20499;-44
2021/08/01 06:42:39;;;;;;;23.10;12.80;;;;;;;16.46;100.00;100373.84;3580657;40;20802;-45
2021/08/01 06:45:08;;;;;;;20.83;12.27;;;;;;;16.56;100.00;100374.84;3581615;40;20510;-45
2021/08/01 06:47:37;;;;;;;26.03;12.30;;;;;;;16.59;100.00;100364.47;3579534;40;20464;-45
2021/08/01 06:50:05;;;;;;;26.23;12.60;;;;;;;16.57;100.00;100376.56;3581148;40;20508;-47
2021/08/01 06:52:37;;;;;;;21.20;11.40;;;;;;;16.67;100.00;100366.28;3579507;40;20800;-44
2021/08/01 06:55:07;;;;;;;23.40;9.67;;;;;;;16.56;100.00;100366.16;3579928;40;20510;-43
2021/08/01 06:57:35;;;;;;;16.43;8.80;;;;;;;16.58;100.00;100361.84;3578287;40;20475;-44
2021/08/01 07:00:03;;;;;;;27.30;12.50;;;;;;;16.79;100.00;100370.72;3581490;40;20505;-43
2021/08/01 07:02:31;;;;;;;23.80;12.13;;;;;;;16.84;100.00;100369.03;3578991;40;20788;-44
2021/08/01 07:05:00;;;;;;;17.73;11.77;;;;;;;16.88;100.00;100371.69;3571509;40;20526;-45
2021/08/01 07:07:28;;;;;;;24.57;12.27;;;;;;;16.93;100.00;100370.88;3579059;40;20466;-43
2021/08/01 07:09:55;;;;;;;20.50;11.97;;;;;;;17.09;100.00;100375.41;3581782;40;20507;-43
2021/08/01 07:12:23;;;;;;;21.77;11.70;;;;;;;17.05;100.00;100381.44;3578939;40;20491;-45
2021/08/01 07:14:50;;;;;;;14.40;9.20;;;;;;;16.80;100.00;100375.94;3581032;40;20502;-46
2021/08/01 07:17:21;;;;;;;18.37;10.30;;;;;;;16.83;100.00;100377.72;3578738;40;20671;-46
2021/08/01 07:19:49;;;;;;;20.20;9.40;;;;;;;16.99;100.00;100378.75;3580790;40;20499;-45
2021/08/01 07:22:18;;;;;;;21.33;9.47;;;;;;;16.79;100.00;100376.81;3579608;40;20474;-48
2021/08/01 07:24:45;;;;;;;19.40;10.60;;;;;;;16.96;100.00;100383.91;3581115;40;20505;-45
2021/08/01 07:27:17;;;;;;;20.83;10.70;;;;;;;17.04;100.00;100381.41;3578211;40;20547;-43
2021/08/01 07:29:44;;;;;;;23.60;10.97;;;;;;;17.02;100.00;100378.78;3581057;40;20810;-47
2021/08/01 07:32:12;;;;;;;16.50;10.53;;;;;;;16.96;100.00;100373.47;3583970;40;20683;-46
2021/08/01 07:34:40;;;;;;;14.90;8.50;;;;;;;16.88;100.00;100370.81;3580860;40;20498;-46
2021/08/01 07:37:07;;;;;;;21.03;10.10;;;;;;;17.08;100.00;100368.41;3580426;40;20502;-45
2021/08/01 07:39:36;;;;;;;18.90;9.43;;;;;;;17.08;100.00;100373.63;3581142;40;20511;-46
2021/08/01 07:42:04;;;;;;;18.60;9.33;;;;;;;17.09;100.00;100372.78;3580632;40;20500;-45
2021/08/01 07:44:35;;;;;;;19.20;9.70;;;;;;;17.13;100.00;100365.88;3580331;40;20508;-46
2021/08/01 07:47:03;;;;;;;16.27;8.67;;;;;;;17.06;100.00;100364.03;3578764;40;20511;-43
2021/08/01 07:49:31;;;;;;;11.50;8.50;;;;;;;17.14;100.00;100367.63;3580787;40;20836;-44
2021/08/01 07:51:59;;;;;;;15.30;9.23;;;;;;;17.36;100.00;100360.84;3583144;40;20507;-45
2021/08/01 07:54:26;;;;;;;14.73;9.10;;;;;;;17.62;100.00;100364.47;3580959;40;20511;-46
2021/08/01 07:56:55;;;;;;;20.63;8.83;;;;;;;17.75;100.00;100362.81;3579486;40;20537;-45
2021/08/01 07:59:23;;;;;;;15.50;8.43;;;;;;;17.58;100.00;100352.28;3580643;40;20485;-44
2021/08/01 08:01:50;;;;;;;16.10;8.70;;;;;;;17.67;100.00;100347.13;3579030;40;20493;-46
2021/08/01 08:04:18;;;;;;;15.50;9.37;;;;;;;17.88;100.00;100346.38;3580629;40;20592;-45
2021/08/01 08:06:46;;;;;;;61.40;22.03;;;;;;;17.73;100.00;100349.75;3568762;40;20528;-44
2021/08/01 08:09:13;;;;;;;27.10;10.47;;;;;;;17.64;100.00;100334.94;3577774;40;20865;-43
2021/08/01 08:11:41;;;;;;;13.20;8.43;;;;;;;17.80;100.00;100340.25;3568737;40;20538;-43
2021/08/01 08:14:10;;;;;;;21.53;9.73;;;;;;;17.99;100.00;100330.75;3567979;40;20529;-44
2021/08/01 08:16:41;;;;;;;29.33;16.50;;;;;;;17.83;100.00;100337.63;3555629;40;20984;-44
2021/08/01 08:19:09;;;;;;;24.53;12.53;;;;;;;17.76;100.00;100330.66;3569415;40;20655;-46
2021/08/01 08:21:36;;;;;;;20.13;10.40;;;;;;;17.75;100.00;100323.69;3571352;40;20514;-48
2021/08/01 08:24:04;;;;;;;17.37;9.10;;;;;;;17.56;100.00;100328.81;3569349;40;20526;-44
2021/08/01 08:26:32;;;;;;;16.73;8.30;;;;;;;17.62;100.00;100323.63;3566094;40;20669;-46
2021/08/01 08:29:00;;;;;;;20.57;10.70;;;;;;;17.90;100.00;100328.97;3573158;40;20503;-47
2021/08/01 08:31:29;;;;;;;24.37;10.53;;;;;;;17.87;100.00;100328.97;3560430;40;20483;-47
2021/08/01 08:33:56;;;;;;;31.20;13.90;;;;;;;17.93;100.00;100323.78;3577024;40;20516;-45
2021/08/01 08:36:24;;;;;;;16.43;8.03;;;;;;;18.10;100.00;100333.44;3573013;40;20483;-43
2021/08/01 08:38:52;;;;;;;15.37;9.57;;;;;;;18.11;100.00;100321.25;3583739;40;20510;-45
2021/08/01 08:41:21;;;;;;;12.93;7.87;;;;;;;18.14;100.00;100322.16;3577180;40;20489;-44
2021/08/01 08:43:49;;;;;;;22.60;9.50;;;;;;;18.03;100.00;100313.38;3579264;40;20544;-44
2021/08/01 08:46:18;;;;;;;13.00;7.43;;;;;;;18.02;100.00;100311.63;3577716;40;20459;-45
2021/08/01 08:48:47;;;;;;;17.00;9.83;;;;;;;18.38;100.00;100312.66;3570800;40;20514;-46
2021/08/01 08:51:15;;;;;;;16.67;8.40;;;;;;;18.17;100.00;100311.72;3571767;40;20508;-47
2021/08/01 08:53:48;;;;;;;11.10;7.00;;;;;;;17.97;100.00;100323.78;3576153;40;20536;-45
2021/08/01 08:56:16;;;;;;;10.50;7.17;;;;;;;17.94;100.00;100315.09;3585160;40;20495;-44
2021/08/01 08:58:46;;;;;;;16.13;7.70;;;;;;;17.83;100.00;100321.97;3580629;40;20541;-43
2021/08/01 09:01:14;;;;;;;37.07;14.87;;;;;;;18.00;100.00;100324.66;3579715;40;20494;-47
2021/08/01 09:03:42;;;;;;;12.67;7.17;;;;;;;18.13;100.00;100320.41;3580340;40;20494;-44
2021/08/01 09:06:10;;;;;;;14.47;7.93;;;;;;;18.40;100.00;100313.50;3578451;40;20469;-45
2021/08/01 09:08:40;;;;;;;17.97;8.70;;;;;;;18.39;100.00;100316.13;3579368;40;20505;-45
2021/08/01 09:11:07;;;;;;;14.83;8.17;;;;;;;18.27;100.00;100310.00;3578808;40;20528;-45
2021/08/01 09:13:48;;;;;;;17.80;8.37;;;;;;;18.69;100.00;100310.09;3583207;40;20836;-45
2021/08/01 09:16:18;;;;;;;12.67;7.23;;;;;;;18.93;100.00;100308.38;3566104;40;20544;-45
2021/08/01 09:18:46;;;;;;;31.43;11.67;;;;;;;19.03;100.00;100307.50;3581737;40;20513;-48
2021/08/01 09:21:31;;;;;;;17.67;8.77;;;;;;;19.01;100.00;100298.78;3577920;40;20479;-44
2021/08/01 09:23:59;;;;;;;17.63;7.73;;;;;;;18.73;100.00;100296.13;3582499;40;20807;-45
2021/08/01 09:26:42;;;;;;;72.57;19.77;;;;;;;18.65;100.00;100287.44;3578925;40;20720;-46
2021/08/01 09:29:13;;;;;;;23.10;9.00;;;;;;;18.34;100.00;100295.22;3583858;40;20536;-47
2021/08/01 09:31:40;;;;;;;19.97;8.77;;;;;;;18.48;100.00;100288.31;3582850;40;20504;-45
2021/08/01 09:34:22;;;;;;;16.97;7.63;;;;;;;18.47;100.00;100294.38;3581308;40;20504;-49
2021/08/01 09:36:59;;;;;;;13.80;7.50;;;;;;;18.44;100.00;100291.78;3581196;40;20525;-44
2021/08/01 09:39:27;;;;;;;16.93;7.27;;;;;;;18.49;100.00;100289.16;3580877;40;20838;-44
2021/08/01 09:42:02;;;;;;;11.70;6.23;;;;;;;18.35;100.00;100303.06;3570474;40;20602;-46
2021/08/01 09:44:31;;;;;;;9.67;5.93;;;;;;;18.54;100.00;100297.00;3563601;40;20495;-46
2021/08/01 09:46:58;;;;;;;24.23;9.57;;;;;;;18.75;100.00;100302.25;3579110;40;20459;-44
2021/08/01 09:49:28;;;;;;;26.37;9.00;;;;;;;18.66;100.00;100291.78;3581400;40;20510;-45
2021/08/01 09:51:59;;;;;;;16.03;7.07;;;;;;;18.78;100.00;100277.88;3578668;40;20695;-44
2021/08/01 09:54:27;;;;;;;9.30;5.47;;;;;;;18.71;100.00;100269.16;3563349;40;20524;-44
2021/08/01 09:56:56;;;;;;;17.50;7.50;;;;;;;18.74;100.00;100270.91;3594092;39;20495;-48
2021/08/01 09:59:25;;;;;;;19.17;7.57;;;;;;;18.49;100.00;100270.88;3583164;40;20497;-44
2021/08/01 10:01:55;;;;;;;12.27;5.70;;;;;;;18.76;100.00;100267.41;3580417;40;20495;-46
2021/08/01 10:04:27;;;;;;;11.83;6.63;;;;;;;19.09;100.00;100269.16;3579999;40;20812;-45
2021/08/01 10:07:01;;;;;;;11.67;6.53;;;;;;;19.06;100.00;100262.19;3586718;40;20699;-44
2021/08/01 10:09:28;;;;;;;7.87;5.13;;;;;;;18.85;100.00;100255.22;3571276;40;20534;-45
2021/08/01 10:11:57;;;;;;;8.20;5.03;;;;;;;18.92;100.00;100259.56;3580270;40;20745;-44
2021/08/01 10:14:24;;;;;;;20.13;7.17;;;;;;;18.89;100.00;100254.34;3581429;40;20583;-47
2021/08/01 10:16:52;;;;;;;11.37;5.27;;;;;;;19.23;100.00;100245.63;3575515;40;20474;-45
2021/08/01 10:19:20;;;;;;;8.93;5.70;;;;;;;19.33;100.00;100254.31;3581253;40;20516;-48
2021/08/01 10:21:50;;;;;;;10.73;5.50;;;;;;;19.40;100.00;100243.84;3564690;40;20513;-50
2021/08/01 10:24:21;;;;;;;10.93;5.30;;;;;;;19.40;100.00;100240.34;3581287;40;20529;-46
2021/08/01 10:26:52;;;;;;;7.27;5.10;;;;;;;19.75;100.00;100234.13;3572865;40;20474;-48
2021/08/01 10:29:24;;;;;;;5.13;3.50;;;;;;;19.54;100.00;100235.06;3581488;40;20549;-44
2021/08/01 10:31:55;;;;;;;6.20;3.80;;;;;;;19.43;100.00;100229.84;3581542;40;20465;-47
2021/08/01 10:34:34;;;;;;;5.13;3.73;;;;;;;19.69;100.00;100221.06;3581496;40;20551;-46
2021/08/01 10:37:06;;;;;;;8.40;4.13;;;;;;;20.31;100.00;100220.72;3586551;39;20479;-45
2021/08/01 10:39:36;;;;;;;11.10;4.40;;;;;;;20.42;100.00;100214.53;3586702;39;20501;-46
2021/08/01 10:42:07;;;;;;;5.87;3.83;;;;;;;20.32;100.00;100206.75;3579619;40;20698;-47
2021/08/01 10:44:35;;;;;;;7.03;3.90;;;;;;;19.84;100.00;100214.84;3581469;40;20501;-46
2021/08/01 10:47:06;;;;;;;18.70;7.43;;;;;;;20.28;100.00;100215.50;3580743;40;20478;-48
2021/08/01 10:49:38;;;;;;;5.70;3.37;;;;;;;20.68;100.00;100223.94;3570966;40;20502;-49
2021/08/01 10:52:08;;;;;;;9.27;4.23;;;;;;;20.14;100.00;100227.84;3584267;40;20509;-46
2021/08/01 10:54:37;;;;;;;5.50;3.93;;;;;;;19.35;100.00;100249.94;3581046;40;20553;-48
2021/08/01 10:57:15;;;;;;;5.97;2.50;;;;;;;18.59;100.00;100267.41;3587369;39;20516;-47
2021/08/01 11:00:04;;;;;;;7.90;3.87;;;;;;;18.43;100.00;100274.38;3583014;40;20521;-47
2021/08/01 11:02:32;;;;;;;5.13;2.50;;;;;;;18.32;100.00;100276.06;3572928;40;20505;-49
2021/08/01 11:05:38;;;;;;;8.40;3.00;;;;;;;18.25;100.00;100282.16;3577350;40;20586;-46
2021/08/01 11:08:07;;;;;;;4.50;2.80;;;;;;;18.08;100.00;100280.38;3580369;40;20688;-47
2021/08/01 11:10:37;;;;;;;11.30;7.40;;;;;;;18.24;100.00;100278.66;3577623;40;20514;-47
2021/08/01 11:13:41;;;;;;;10.37;3.77;;;;;;;18.31;100.00;100276.94;3581072;40;20513;-44
2021/08/01 11:16:10;;;;;;;4.90;2.60;;;;;;;17.94;100.00;100275.06;3574365;40;20573;-45
2021/08/01 11:18:39;;;;;;;7.87;3.40;;;;;;;17.75;100.00;100277.59;3581169;40;20830;-46